createdAt,value
2022-10-26T00:02:57.947Z,13.8
2022-10-26T00:07:40.258Z,16.2
2022-10-26T00:12:22.571Z,15.7
2022-10-26T00:17:04.782Z,15.9
2022-10-26T00:21:47.098Z,14.5
2022-10-26T00:26:29.416Z,13
2022-10-26T00:31:10.720Z,12.4
2022-10-26T00:35:52.036Z,11.2
2022-10-26T00:40:33.344Z,12.5
2022-10-26T00:45:14.557Z,9.8
2022-10-26T00:49:55.887Z,10.8
2022-10-26T00:54:37.181Z,9.6
2022-10-26T00:59:19.491Z,10.8
2022-10-26T01:04:01.811Z,10
2022-10-26T01:08:44.027Z,10.5
2022-10-26T01:13:26.328Z,10.8
2022-10-26T01:18:08.644Z,9.2
2022-10-26T01:22:50.862Z,9.1
2022-10-26T01:27:33.169Z,8.8
2022-10-26T01:32:15.491Z,7.6
2022-10-26T01:36:57.695Z,7.3
2022-10-26T01:41:40.084Z,7.2
2022-10-26T01:46:22.318Z,7.7
2022-10-26T01:51:04.530Z,8.2
2022-10-26T01:55:45.845Z,7.6
2022-10-26T02:00:28.161Z,7.3
2022-10-26T02:05:10.372Z,6.5
2022-10-26T02:09:52.682Z,7.1
2022-10-26T02:14:35.002Z,6.5
2022-10-26T02:19:17.208Z,7.5
2022-10-26T02:23:59.545Z,7
2022-10-26T02:28:40.831Z,8.7
2022-10-26T02:33:22.148Z,9
2022-10-26T02:38:04.456Z,7.9
2022-10-26T02:42:46.668Z,6.5
2022-10-26T02:47:28.982Z,7
2022-10-26T02:52:11.301Z,7.8
2022-10-26T02:56:53.530Z,8.7
2022-10-26T03:01:35.825Z,8.6
2022-10-26T03:06:18.133Z,9
2022-10-26T03:11:00.352Z,8.2
2022-10-26T03:15:42.661Z,7.6
2022-10-26T03:20:24.982Z,7.1
2022-10-26T03:25:07.197Z,7.9
2022-10-26T03:29:49.502Z,8.3
2022-10-26T03:34:30.895Z,8.6
2022-10-26T03:39:13.158Z,9.1
2022-10-26T03:43:55.339Z,9.2
2022-10-26T03:48:37.653Z,10.2
2022-10-26T03:53:19.999Z,9.3
2022-10-26T03:58:02.178Z,9.6
2022-10-26T04:02:44.492Z,10.2
2022-10-26T04:07:25.801Z,11
2022-10-26T04:12:07.116Z,13.2
2022-10-26T04:16:48.440Z,14
2022-10-26T04:21:29.740Z,13
2022-10-26T04:26:11.054Z,12.7
2022-10-26T04:30:52.260Z,13
2022-10-26T04:35:34.571Z,15.2
2022-10-26T04:40:16.902Z,13.6
2022-10-26T04:44:59.094Z,16.7
2022-10-26T04:49:41.411Z,17.2
2022-10-26T04:54:23.789Z,14.3
2022-10-26T04:59:05.935Z,14.5
2022-10-26T05:03:48.276Z,18.5
2022-10-26T05:08:30.560Z,18.4
2022-10-26T05:13:12.778Z,18.29
2022-10-26T05:17:55.087Z,17.6
2022-10-26T05:22:37.444Z,18.4
2022-10-26T05:27:19.690Z,17.5
2022-10-26T05:32:00.996Z,16.79
2022-10-26T05:36:43.289Z,19.7
2022-10-26T05:41:25.615Z,18.5
2022-10-26T05:46:07.830Z,15.9
2022-10-26T05:50:50.101Z,21.5
2022-10-26T05:55:32.385Z,17.9
2022-10-26T06:00:14.612Z,15.7
2022-10-26T06:04:55.917Z,13.3
2022-10-26T06:09:37.243Z,11.8
2022-10-26T06:14:18.556Z,16.6
2022-10-26T06:18:59.848Z,14.8
2022-10-26T06:23:42.160Z,12.4
2022-10-26T06:28:24.369Z,7.9
2022-10-26T06:33:06.716Z,6.9
2022-10-26T06:37:49.008Z,7.2
2022-10-26T06:42:31.211Z,7
2022-10-26T06:47:13.529Z,5
2022-10-26T06:51:55.918Z,5.2
2022-10-26T06:56:38.054Z,5.4
2022-10-26T07:01:20.366Z,6
2022-10-26T07:06:02.707Z,4.4
2022-10-26T07:10:44.932Z,4.5
2022-10-26T07:15:27.201Z,2.4
2022-10-26T08:30:42.642Z,2.7
2022-10-26T08:35:24.978Z,2.5
2022-10-26T08:40:06.284Z,3.1
2022-10-26T08:44:47.651Z,3.9
2022-10-26T08:49:29.811Z,4.8
2022-10-26T08:54:12.162Z,5.3
2022-10-26T08:58:54.475Z,4.5
2022-10-26T09:03:36.672Z,4.8
2022-10-26T09:08:18.992Z,3.1
2022-10-26T09:13:01.217Z,3.2
2022-10-26T09:17:43.587Z,4.5
2022-10-26T09:27:08.075Z,5.7
2022-10-26T09:31:50.367Z,7.1
2022-10-26T09:36:32.580Z,6
2022-10-26T09:41:14.911Z,5.4
2022-10-26T09:45:56.232Z,6.1
2022-10-26T09:50:38.531Z,4.6
2022-10-26T10:00:03.091Z,4.1
2022-10-26T10:04:45.335Z,4.19
2022-10-26T10:14:09.904Z,3.8
2022-10-26T10:23:34.439Z,3.3
2022-10-26T10:28:16.757Z,4
2022-10-26T10:32:58.969Z,3.5
2022-10-26T10:37:41.286Z,3
2022-10-26T10:47:05.833Z,2.6
2022-10-26T10:51:48.163Z,2.8
2022-10-26T10:56:30.346Z,2.6
2022-10-26T11:01:12.722Z,2.7
2022-10-26T11:05:54.975Z,3
2022-10-26T11:10:37.195Z,3.7
2022-10-26T11:15:19.561Z,4.69
2022-10-26T11:20:00.831Z,4.19
2022-10-26T11:24:43.039Z,2.5
2022-10-26T11:29:25.364Z,5.4
2022-10-26T11:43:32.205Z,2.4
2022-10-26T11:48:14.414Z,3.7
2022-10-26T11:52:56.728Z,3.2
2022-10-26T11:57:39.053Z,2.2
2022-10-26T12:02:21.263Z,2.6
2022-10-26T12:07:03.672Z,13.9
2022-10-26T12:11:45.888Z,2.9
2022-10-26T12:21:10.420Z,2.8
2022-10-26T12:30:33.959Z,1.9
2022-10-26T12:35:16.266Z,2.9
2022-10-26T12:39:58.578Z,3
2022-10-26T12:44:40.793Z,2.09
2022-10-26T12:49:23.108Z,2
2022-10-26T12:54:05.426Z,2.2
2022-10-26T12:58:47.640Z,2.3
2022-10-26T13:03:29.956Z,3
2022-10-26T13:08:12.271Z,3.2
2022-10-26T13:17:36.799Z,3.5
2022-10-26T13:27:01.326Z,3.4
2022-10-26T13:31:42.652Z,2.7
2022-10-26T13:36:24.858Z,2.7
2022-10-26T13:41:07.169Z,3.3
2022-10-26T13:45:49.529Z,2.9
2022-10-26T13:55:14.055Z,2.2
2022-10-26T13:59:56.362Z,2.2
2022-10-26T14:04:38.623Z,2.8
2022-10-26T14:09:20.938Z,2.2
2022-10-26T14:14:03.173Z,1.8
2022-10-26T14:18:45.391Z,2.4
2022-10-26T14:23:27.707Z,2.5
2022-10-26T14:28:10.031Z,2
2022-10-26T14:32:51.234Z,2.4
2022-10-26T14:37:33.548Z,2.8
2022-10-26T14:42:15.890Z,2.6
2022-10-26T14:51:40.402Z,2.7
2022-10-26T14:56:22.656Z,2.9
2022-10-26T15:01:04.937Z,2.8
2022-10-26T15:05:47.258Z,3.8
2022-10-26T15:10:29.457Z,3.3
2022-10-26T15:15:11.771Z,3.2
2022-10-26T15:19:54.132Z,2.3
2022-10-26T15:24:36.361Z,3.5
2022-10-26T15:29:18.653Z,2.9
2022-10-26T15:34:00.078Z,3
2022-10-26T15:38:41.253Z,3.8
2022-10-26T15:43:23.452Z,4.1
2022-10-26T15:48:05.810Z,5.6
2022-10-26T15:52:48.117Z,5
2022-10-26T15:57:30.296Z,5.7
2022-10-26T16:02:12.611Z,5.5
2022-10-26T16:06:54.922Z,7.5
2022-10-26T16:11:37.164Z,5
2022-10-26T16:16:19.496Z,4.9
2022-10-26T16:25:43.976Z,6
2022-10-26T16:30:26.305Z,5
2022-10-26T16:35:08.613Z,7
2022-10-26T16:39:49.819Z,6.6
2022-10-26T16:44:32.134Z,6.6
2022-10-26T16:49:14.464Z,7.7
2022-10-26T16:53:56.656Z,4.6
2022-10-26T16:58:38.992Z,4.6
2022-10-26T17:03:21.289Z,6
2022-10-26T17:08:03.546Z,5.5
2022-10-26T17:12:45.817Z,7.1
2022-10-26T17:17:27.124Z,8.1
2022-10-26T17:22:08.477Z,8.89
2022-10-26T17:26:50.768Z,8.6
2022-10-26T17:31:33.115Z,8
2022-10-26T17:36:15.363Z,7.5
2022-10-26T17:40:57.619Z,7.3
2022-10-26T17:50:22.245Z,6.7
2022-10-26T17:55:04.432Z,7.1
2022-10-26T17:59:46.767Z,6.5
2022-10-26T18:04:28.991Z,7.2
2022-10-26T18:09:11.318Z,8.2
2022-10-26T18:13:53.600Z,7.8
2022-10-26T18:18:35.853Z,10.5
2022-10-26T18:23:17.012Z,11.9
2022-10-26T18:27:59.385Z,21.3
2022-10-26T18:37:23.897Z,22.3
2022-10-26T18:46:47.547Z,16.2
2022-10-26T18:51:28.864Z,14.7
2022-10-26T18:56:10.152Z,17.4
2022-10-26T19:00:52.444Z,17.1
2022-10-26T19:05:34.747Z,19.9
2022-10-26T19:10:16.944Z,18.1
2022-10-26T19:14:59.786Z,20
2022-10-26T19:19:41.470Z,20.9
2022-10-26T19:24:23.785Z,21.7
2022-10-26T19:29:05.998Z,24.3
2022-10-26T19:33:48.312Z,25.8
2022-10-26T19:38:30.641Z,26.9
2022-10-26T19:47:55.155Z,29
2022-10-26T19:52:37.468Z,31.4
2022-10-26T19:57:18.680Z,38.7
2022-10-26T20:02:00.995Z,38.59
2022-10-26T20:06:43.304Z,42.3
2022-10-26T20:11:25.524Z,40.5
2022-10-26T20:16:07.835Z,44.1
2022-10-26T20:20:50.148Z,52.5
2022-10-26T20:25:32.358Z,44.6
2022-10-26T20:30:14.677Z,51.2
2022-10-26T20:34:55.990Z,43.3
2022-10-26T20:39:37.297Z,44.7
2022-10-26T20:44:19.523Z,39.59
2022-10-26T20:49:01.830Z,40.2
2022-10-26T20:53:44.139Z,37.2
2022-10-26T20:58:26.354Z,49.9
2022-10-26T21:03:08.665Z,54.1
2022-10-26T21:07:50.978Z,43.8
2022-10-26T21:12:33.194Z,35.9
2022-10-26T21:17:15.510Z,33.59
2022-10-26T21:21:57.828Z,34.5
2022-10-26T21:26:40.039Z,33.8
2022-10-26T21:36:04.664Z,36.9
2022-10-26T21:45:28.187Z,45.5
2022-10-26T21:54:51.813Z,51.2
2022-10-26T21:59:33.130Z,43.7
2022-10-26T22:04:14.442Z,45.5
2022-10-26T22:08:56.654Z,43.2
2022-10-26T22:13:38.977Z,41.3
2022-10-26T22:18:21.290Z,35
2022-10-26T22:23:03.498Z,46.2
2022-10-26T22:27:45.812Z,51.6
2022-10-26T22:32:28.125Z,54.9
2022-10-26T22:37:10.335Z,50
2022-10-26T22:41:52.653Z,56.7
2022-10-26T22:46:34.960Z,50.8
2022-10-26T22:51:17.178Z,45.9
2022-10-26T22:55:58.492Z,46.4
2022-10-26T23:00:39.798Z,42.6
2022-10-26T23:05:22.115Z,51.3
2022-10-26T23:10:04.328Z,66.5
2022-10-26T23:14:46.641Z,62.4
2022-10-26T23:19:28.956Z,64
2022-10-26T23:24:11.172Z,48.1
2022-10-26T23:28:53.489Z,42.6
2022-10-26T23:33:35.794Z,45.8
2022-10-26T23:38:18.012Z,52.8
2022-10-26T23:43:00.330Z,42.4
2022-10-26T23:47:42.637Z,36
2022-10-26T23:52:24.852Z,41.9
2022-10-26T23:57:07.168Z,36.9
